Time;durP1;ratioP1;P1;durP2;ratioP2;P2;SDS_P1;SDS_P2;PMS_P1;PMS_P2;Temp;Humidity;BMP_temperature;BMP_pressure;BME280_temperature;BME280_humidity;BME280_pressure;Samples;Min_cycle;Max_cycle;Signal;HPM_P1;HPM_P2
2022/05/01 00:01:35;;;;;;;5.50;4.70;;;;;;;11.58;98.29;94844.91;5056608;28;20279;-60
2022/05/01 00:04:01;;;;;;;6.90;5.00;;;;;;;11.55;97.53;94859.63;5075354;28;20189;-61
2022/05/01 00:06:26;;;;;;;8.57;5.70;;;;;;;11.58;97.63;94860.19;5056690;28;20247;-62
2022/05/01 00:08:52;;;;;;;7.07;5.90;;;;;;;11.58;97.32;94859.38;5075106;28;20726;-61
2022/05/01 00:11:17;;;;;;;7.10;5.40;;;;;;;11.63;96.68;94859.78;5082337;22;20660;-61
2022/05/01 00:13:45;;;;;;;6.53;4.67;;;;;;;11.54;96.60;94861.38;5074430;28;20174;-60
2022/05/01 00:16:11;;;;;;;4.77;4.33;;;;;;;11.40;97.71;94853.28;5074570;28;20185;-60
2022/05/01 00:18:37;;;;;;;4.93;4.40;;;;;;;11.58;97.38;94851.72;5074777;28;20188;-62
2022/05/01 00:21:03;;;;;;;5.57;3.73;;;;;;;11.55;97.36;94846.91;5075318;28;20185;-60
2022/05/01 00:23:28;;;;;;;5.30;3.90;;;;;;;11.43;98.06;94833.47;5074501;28;20208;-61
2022/05/01 00:25:54;;;;;;;8.07;4.60;;;;;;;11.28;99.70;94832.25;5074721;28;20192;-59
2022/05/01 00:28:19;;;;;;;7.60;5.00;;;;;;;11.09;100.00;94834.72;5074034;28;20572;-60
2022/05/01 00:30:45;;;;;;;6.77;5.07;;;;;;;11.31;99.64;94844.69;5056411;28;20193;-59
2022/05/01 00:38:39;;;;;;;9.33;4.90;;;;;;;11.20;100.00;94836.34;5074156;28;20168;-62
2022/05/01 00:41:14;;;;;;;5.27;4.53;;;;;;;11.28;99.72;94837.31;5055938;28;20201;-61
2022/05/01 00:44:03;;;;;;;6.57;4.60;;;;;;;11.37;99.43;94838.28;5073932;28;20650;-61
2022/05/01 00:46:29;;;;;;;5.70;4.50;;;;;;;11.50;98.13;94844.75;5073722;28;20693;-60
2022/05/01 00:48:54;;;;;;;6.47;4.77;;;;;;;11.49;98.71;94839.78;5073769;28;20250;-62
2022/05/01 00:51:20;;;;;;;7.07;6.37;;;;;;;11.52;98.11;94842.06;5073610;28;20230;-61
2022/05/01 00:53:50;;;;;;;5.43;4.67;;;;;;;11.49;98.77;94838.03;5073987;28;20192;-58
2022/05/01 00:56:16;;;;;;;8.83;6.40;;;;;;;11.54;98.55;94835.91;5055522;28;20188;-61
2022/05/01 00:58:42;;;;;;;8.03;5.60;;;;;;;11.46;99.20;94838.31;5073077;28;20683;-59
2022/05/01 01:01:08;;;;;;;6.87;5.37;;;;;;;11.40;99.16;94836.28;5073543;28;20272;-59
2022/05/01 01:03:34;;;;;;;8.17;5.60;;;;;;;11.43;99.89;94837.78;5073223;28;20189;-61
2022/05/01 01:05:59;;;;;;;7.23;5.23;;;;;;;11.31;100.00;94833.72;5073520;28;20225;-62
2022/05/01 01:08:25;;;;;;;8.30;6.23;;;;;;;11.31;100.00;94834.50;5073317;28;20685;-59
2022/05/01 01:10:50;;;;;;;6.80;5.67;;;;;;;11.35;100.00;94829.97;5073919;28;20196;-61
2022/05/01 01:13:16;;;;;;;8.27;5.70;;;;;;;11.44;100.00;94835.09;5073586;28;20185;-59
2022/05/01 01:15:41;;;;;;;6.87;5.33;;;;;;;11.45;99.64;94841.78;5073242;28;20184;-60
2022/05/01 01:18:07;;;;;;;6.97;6.00;;;;;;;11.30;100.00;94827.81;5055204;28;20199;-61
2022/05/01 01:20:32;;;;;;;6.70;5.53;;;;;;;11.35;100.00;94828.22;5073640;28;20181;-60
2022/05/01 01:23:00;;;;;;;6.73;6.00;;;;;;;11.28;100.00;94827.16;5072990;28;20195;-61
2022/05/01 01:25:29;;;;;;;7.30;5.83;;;;;;;11.27;100.00;94819.66;5073505;28;20323;-59
2022/05/01 01:27:58;;;;;;;6.93;6.13;;;;;;;11.25;100.00;94829.16;5072680;28;20273;-60
2022/05/01 01:33:08;;;;;;;7.63;6.30;;;;;;;11.18;100.00;94822.97;5073079;28;20208;-64
2022/05/01 01:35:37;;;;;;;6.23;5.60;;;;;;;11.02;100.00;94815.81;5073373;28;20662;-58
2022/05/01 01:38:03;;;;;;;7.77;6.73;;;;;;;11.18;100.00;94820.41;5072745;28;20197;-61
2022/05/01 01:40:39;;;;;;;6.57;5.90;;;;;;;11.11;100.00;94811.69;5074654;28;20191;-62
2022/05/01 01:43:06;;;;;;;6.33;5.73;;;;;;;11.15;100.00;94818.91;5073011;28;20195;-58
2022/05/01 01:45:32;;;;;;;7.17;6.27;;;;;;;11.19;100.00;94815.19;5072948;28;20258;-62
2022/05/01 01:48:10;;;;;;;7.97;6.40;;;;;;;11.14;100.00;94816.50;5072563;28;20209;-58
2022/05/01 01:50:43;;;;;;;7.67;6.87;;;;;;;11.08;100.00;94817.84;5072905;28;20189;-61
2022/05/01 01:53:10;;;;;;;7.47;6.77;;;;;;;10.90;100.00;94815.09;5072442;28;20295;-60
2022/05/01 01:55:38;;;;;;;8.93;7.27;;;;;;;10.84;100.00;94809.72;5072970;28;20173;-61
2022/05/01 01:58:05;;;;;;;9.10;7.50;;;;;;;10.99;100.00;94811.78;5072308;28;20205;-60
2022/05/01 02:00:32;;;;;;;10.93;7.97;;;;;;;11.04;100.00;94811.41;5072889;28;20252;-63
2022/05/01 02:02:58;;;;;;;13.13;7.97;;;;;;;10.96;100.00;94812.06;5072354;28;20299;-60
2022/05/01 02:05:25;;;;;;;9.87;8.77;;;;;;;10.91;100.00;94808.25;5073224;28;20176;-60
2022/05/01 02:07:51;;;;;;;9.13;7.60;;;;;;;10.79;100.00;94810.09;5072478;28;20213;-61
2022/05/01 02:10:17;;;;;;;8.43;7.27;;;;;;;10.79;100.00;94814.38;5054577;28;20215;-60
2022/05/01 02:12:43;;;;;;;9.43;7.33;;;;;;;10.87;100.00;94822.16;5072355;28;20205;-59
2022/05/01 02:15:09;;;;;;;14.37;8.00;;;;;;;10.85;100.00;94819.75;5072673;28;20200;-61
2022/05/01 02:17:35;;;;;;;10.40;7.87;;;;;;;10.95;100.00;94809.63;5072602;28;20277;-61
2022/05/01 02:20:00;;;;;;;9.20;8.23;;;;;;;10.80;100.00;94805.81;5072455;28;20606;-61
2022/05/01 02:22:26;;;;;;;12.30;8.67;;;;;;;10.90;100.00;94809.22;5072085;28;20284;-59
2022/05/01 02:24:54;;;;;;;10.10;8.17;;;;;;;10.84;100.00;94807.19;5072397;28;20173;-59
2022/05/01 02:27:20;;;;;;;11.00;8.53;;;;;;;10.77;100.00;94814.50;5071586;28;20708;-59
2022/05/01 02:29:46;;;;;;;12.53;8.33;;;;;;;10.54;100.00;94809.72;5054123;28;20280;-59
2022/05/01 02:32:12;;;;;;;12.00;9.00;;;;;;;10.70;100.00;94805.78;5053886;28;20201;-58
2022/05/01 02:34:37;;;;;;;11.97;8.93;;;;;;;10.61;100.00;94810.81;5073928;28;20215;-62
2022/05/01 02:37:03;;;;;;;10.03;8.57;;;;;;;10.71;100.00;94816.75;5054014;28;20251;-59
2022/05/01 02:39:28;;;;;;;14.40;9.13;;;;;;;10.71;100.00;94812.47;5072175;28;20185;-60
2022/05/01 02:41:56;;;;;;;11.80;8.87;;;;;;;10.56;100.00;94806.13;5071687;28;20204;-61
2022/05/01 02:44:21;;;;;;;11.47;9.23;;;;;;;10.37;100.00;94802.66;5072376;28;20568;-59
2022/05/01 02:46:47;;;;;;;12.70;9.50;;;;;;;10.31;100.00;94805.69;5071955;28;20212;-59
2022/05/01 02:49:13;;;;;;;11.80;8.93;;;;;;;10.47;100.00;94806.03;5072161;28;20301;-62
2022/05/01 02:51:38;;;;;;;12.27;8.90;;;;;;;10.42;100.00;94800.56;5072124;28;20583;-62
2022/05/01 02:54:04;;;;;;;12.00;9.80;;;;;;;10.57;100.00;94801.81;5072533;28;20181;-60
2022/05/01 02:56:30;;;;;;;10.03;8.53;;;;;;;10.79;100.00;94807.56;5071984;28;20177;-60
2022/05/01 03:01:40;;;;;;;10.27;9.17;;;;;;;10.68;100.00;94806.84;5071728;28;20204;-59
2022/05/01 03:04:05;;;;;;;11.33;10.10;;;;;;;10.67;100.00;94803.47;5054070;28;20181;-59
2022/05/01 03:06:33;;;;;;;13.57;9.30;;;;;;;10.53;100.00;94800.47;5071615;28;20212;-62
2022/05/01 03:08:59;;;;;;;12.50;9.73;;;;;;;10.55;100.00;94798.59;5071608;28;20681;-61
2022/05/01 03:11:24;;;;;;;11.30;9.47;;;;;;;10.79;100.00;94802.47;5071372;28;20212;-60
2022/05/01 03:13:50;;;;;;;13.10;9.30;;;;;;;10.74;100.00;94793.63;5071552;28;20173;-62
2022/05/01 03:16:15;;;;;;;12.87;10.27;;;;;;;10.74;100.00;94798.69;5072023;28;20177;-61
2022/05/01 03:24:09;;;;;;;12.83;9.97;;;;;;;10.68;100.00;94805.09;5071716;28;20681;-61
2022/05/01 03:26:34;;;;;;;12.20;9.53;;;;;;;10.68;100.00;94810.19;5071336;28;20579;-60
2022/05/01 03:29:00;;;;;;;10.90;9.33;;;;;;;10.68;100.00;94809.38;5071426;28;20191;-60
2022/05/01 03:31:27;;;;;;;14.60;10.30;;;;;;;10.62;100.00;94809.88;5071434;28;20643;-63
2022/05/01 03:33:54;;;;;;;13.80;9.30;;;;;;;10.66;100.00;94816.31;5060961;22;20228;-61
2022/05/01 03:36:20;;;;;;;13.60;9.57;;;;;;;10.62;100.00;94813.25;5071404;28;20173;-61
2022/05/01 03:38:46;;;;;;;15.90;10.30;;;;;;;10.80;100.00;94823.63;5073903;28;20235;-62
2022/05/01 03:41:17;;;;;;;13.80;9.93;;;;;;;10.70;100.00;94817.69;5074960;28;20208;-59
2022/05/01 03:43:43;;;;;;;13.33;9.27;;;;;;;10.82;100.00;94820.03;5075453;28;20209;-61
2022/05/01 03:46:10;;;;;;;15.23;9.83;;;;;;;10.82;100.00;94831.94;5074742;28;20185;-62
2022/05/01 03:48:35;;;;;;;13.40;10.13;;;;;;;10.85;100.00;94826.56;5075190;28;20217;-64
2022/05/01 03:51:02;;;;;;;10.67;9.30;;;;;;;10.95;100.00;94840.13;5074895;28;20173;-60
2022/05/01 03:53:29;;;;;;;15.00;9.53;;;;;;;10.97;100.00;94840.81;5074999;28;20240;-62
2022/05/01 03:55:55;;;;;;;13.13;10.67;;;;;;;10.76;100.00;94832.44;5074733;28;20169;-61
2022/05/01 03:58:21;;;;;;;14.37;10.40;;;;;;;10.80;100.00;94831.25;5039876;28;20217;-62
2022/05/01 04:00:47;;;;;;;14.03;10.20;;;;;;;10.64;100.00;94829.19;5074504;28;20199;-62
2022/05/01 04:03:17;;;;;;;14.43;10.83;;;;;;;10.73;100.00;94841.13;5074948;28;20209;-60
2022/05/01 04:05:43;;;;;;;12.47;10.03;;;;;;;11.04;100.00;94849.56;5073312;28;20185;-61
2022/05/01 04:08:09;;;;;;;9.87;8.47;;;;;;;11.00;100.00;94848.22;5074305;28;20220;-63
2022/05/01 04:10:41;;;;;;;12.40;9.50;;;;;;;11.17;100.00;94852.69;5074694;28;20188;-62
2022/05/01 04:13:07;;;;;;;14.80;9.70;;;;;;;11.21;100.00;94858.34;5074912;28;20205;-60
2022/05/01 04:15:33;;;;;;;12.67;10.70;;;;;;;10.97;100.00;94846.72;5074290;28;20606;-64
2022/05/01 04:18:00;;;;;;;16.03;10.17;;;;;;;11.10;100.00;94860.97;5056437;28;20581;-62
2022/05/01 04:20:26;;;;;;;12.23;9.43;;;;;;;11.32;100.00;94869.22;5074522;28;20586;-59
2022/05/01 04:22:52;;;;;;;12.47;10.50;;;;;;;11.43;100.00;94868.31;5074833;28;20201;-61
2022/05/01 04:25:23;;;;;;;11.30;9.70;;;;;;;11.38;100.00;94862.78;5074291;28;20179;-60
2022/05/01 04:27:53;;;;;;;11.57;8.97;;;;;;;11.46;100.00;94868.84;5074453;28;20235;-62
2022/05/01 04:30:20;;;;;;;13.13;10.10;;;;;;;11.22;100.00;94859.94;5073924;28;20370;-62
2022/05/01 04:32:53;;;;;;;12.00;10.37;;;;;;;11.27;100.00;94863.69;5055605;28;20235;-61
2022/05/01 04:35:32;;;;;;;12.93;10.30;;;;;;;11.37;100.00;94861.19;5074050;28;20177;-60
2022/05/01 04:38:08;;;;;;;15.30;10.20;;;;;;;11.24;100.00;94853.78;5073723;28;20313;-61
2022/05/01 04:40:43;;;;;;;12.43;10.77;;;;;;;11.35;100.00;94860.53;5074033;28;20173;-62
2022/05/01 04:43:11;;;;;;;12.90;10.80;;;;;;;11.20;100.00;94852.44;5056102;28;20208;-60
2022/05/01 04:45:38;;;;;;;12.50;9.97;;;;;;;11.46;100.00;94852.78;5073775;28;20330;-63
2022/05/01 04:48:05;;;;;;;11.90;10.30;;;;;;;11.47;100.00;94850.09;5056226;28;20225;-60
2022/05/01 04:50:31;;;;;;;14.33;10.40;;;;;;;11.45;100.00;94848.63;5072866;28;20236;-61
2022/05/01 04:52:57;;;;;;;13.63;10.17;;;;;;;11.59;100.00;94854.16;5073920;28;20284;-60
2022/05/01 04:55:22;;;;;;;12.07;10.33;;;;;;;11.66;100.00;94854.44;5073597;28;20275;-60
2022/05/01 04:57:49;;;;;;;12.20;9.83;;;;;;;11.66;100.00;94860.34;5055797;28;20208;-61
2022/05/01 05:00:18;;;;;;;11.63;10.30;;;;;;;11.69;100.00;94857.56;5055604;28;20220;-62
2022/05/01 05:02:46;;;;;;;13.70;10.73;;;;;;;11.56;100.00;94851.06;5073667;28;20205;-59
2022/05/01 05:05:12;;;;;;;14.53;11.60;;;;;;;11.40;100.00;94853.28;5073668;28;20290;-60
2022/05/01 05:07:38;;;;;;;12.00;10.43;;;;;;;11.50;100.00;94856.66;5073684;28;20304;-61
2022/05/01 05:10:05;;;;;;;12.90;11.30;;;;;;;11.40;100.00;94854.09;5055340;28;20751;-59
2022/05/01 05:12:31;;;;;;;15.87;11.80;;;;;;;11.34;100.00;94854.63;5073439;28;20213;-60
2022/05/01 05:15:00;;;;;;;15.90;10.77;;;;;;;11.28;100.00;94864.50;5073403;28;20188;-62
2022/05/01 05:17:27;;;;;;;15.07;11.57;;;;;;;11.28;100.00;94864.50;5073401;28;20217;-62
2022/05/01 05:19:53;;;;;;;14.80;11.30;;;;;;;11.37;100.00;94874.72;5073391;28;20178;-61
2022/05/01 05:22:19;;;;;;;17.13;10.70;;;;;;;11.46;100.00;94871.41;5072858;28;20197;-60
2022/05/01 05:24:45;;;;;;;13.20;10.87;;;;;;;11.41;100.00;94877.81;5072957;28;20180;-59
2022/05/01 05:27:11;;;;;;;15.60;10.90;;;;;;;11.48;100.00;94867.00;5072994;28;20221;-60
2022/05/01 05:29:38;;;;;;;17.20;11.23;;;;;;;11.40;100.00;94864.28;5072899;28;20708;-60
2022/05/01 05:32:04;;;;;;;14.60;11.27;;;;;;;11.60;100.00;94871.03;5054920;28;20686;-59
2022/05/01 05:34:29;;;;;;;14.77;10.47;;;;;;;11.61;100.00;94862.47;5072822;28;20177;-60
2022/05/01 05:36:55;;;;;;;15.33;11.67;;;;;;;11.68;100.00;94865.31;5072893;28;20205;-62
2022/05/01 05:39:21;;;;;;;13.10;11.53;;;;;;;11.82;100.00;94864.16;5072895;28;20188;-61
2022/05/01 05:41:46;;;;;;;14.90;11.00;;;;;;;11.89;100.00;94863.47;5072621;28;20698;-59
2022/05/01 05:44:11;;;;;;;13.60;11.17;;;;;;;11.93;100.00;94869.91;5072844;28;20635;-60
2022/05/01 05:46:37;;;;;;;12.47;10.90;;;;;;;11.96;100.00;94866.31;5072312;28;20254;-61
2022/05/01 05:49:03;;;;;;;14.63;10.67;;;;;;;12.15;100.00;94873.94;5072904;28;20599;-60
2022/05/01 05:51:28;;;;;;;11.37;10.10;;;;;;;12.08;100.00;94855.84;5072313;28;20184;-60
2022/05/01 05:53:54;;;;;;;11.87;10.57;;;;;;;12.25;100.00;94867.91;5054959;28;20181;-61
2022/05/01 05:56:20;;;;;;;17.63;11.27;;;;;;;12.32;100.00;94871.53;5072457;28;20669;-60
2022/05/01 05:58:46;;;;;;;12.37;10.53;;;;;;;12.41;100.00;94875.03;5072861;28;20196;-59
2022/05/01 06:01:12;;;;;;;13.27;10.10;;;;;;;12.46;100.00;94875.44;5072140;28;20181;-62
2022/05/01 06:03:40;;;;;;;12.90;10.37;;;;;;;12.63;100.00;94867.06;5054631;28;20196;-62
2022/05/01 06:06:06;;;;;;;11.47;9.20;;;;;;;12.68;100.00;94890.44;5072466;28;20184;-62
2022/05/01 06:08:35;;;;;;;12.37;9.37;;;;;;;12.70;100.00;94891.09;5054549;28;20274;-59
2022/05/01 06:11:01;;;;;;;14.87;9.60;;;;;;;12.75;100.00;94890.66;5071963;28;20212;-61
2022/05/01 06:13:27;;;;;;;11.00;9.07;;;;;;;12.72;100.00;94884.13;5054453;28;20225;-64
2022/05/01 06:15:52;;;;;;;11.40;8.70;;;;;;;12.89;100.00;94903.81;5071923;28;20203;-61
2022/05/01 06:18:17;;;;;;;13.77;9.97;;;;;;;12.85;100.00;94894.00;5054259;28;20595;-62
2022/05/01 06:20:43;;;;;;;11.00;8.73;;;;;;;12.88;100.00;94898.84;5072098;28;20181;-63
2022/05/01 06:23:09;;;;;;;12.30;9.20;;;;;;;12.91;100.00;94890.94;5072254;28;20205;-60
2022/05/01 06:25:43;;;;;;;10.40;9.10;;;;;;;12.95;100.00;94880.28;5071845;28;20204;-60
2022/05/01 06:28:09;;;;;;;10.37;7.40;;;;;;;13.02;100.00;94904.34;5072253;28;20236;-62
2022/05/01 06:30:38;;;;;;;11.07;8.90;;;;;;;12.87;100.00;94899.78;5053951;28;20272;-63
2022/05/01 06:33:04;;;;;;;12.27;8.40;;;;;;;13.02;100.00;94893.31;5072443;28;20258;-65
2022/05/01 06:35:31;;;;;;;13.60;8.53;;;;;;;13.13;100.00;94901.63;5054021;28;20181;-63
2022/05/01 06:38:00;;;;;;;11.77;8.57;;;;;;;13.24;98.08;94929.56;5053844;28;20243;-61
2022/05/01 06:40:25;;;;;;;10.23;9.20;;;;;;;13.24;99.50;94903.22;5071898;28;20242;-64
2022/05/01 06:42:51;;;;;;;10.43;8.10;;;;;;;13.37;99.25;94903.72;5072007;28;20208;-60
2022/05/01 06:45:16;;;;;;;12.50;9.93;;;;;;;13.45;97.64;94917.38;5071743;28;20256;-63
2022/05/01 06:47:42;;;;;;;12.43;9.17;;;;;;;13.44;97.39;94914.97;5053864;28;20286;-60
2022/05/01 06:50:08;;;;;;;14.23;9.53;;;;;;;13.45;97.10;94912.25;5072097;28;20180;-59
2022/05/01 06:52:33;;;;;;;12.87;9.80;;;;;;;13.43;98.07;94898.03;5053890;28;20208;-61
2022/05/01 06:54:59;;;;;;;10.77;8.77;;;;;;;13.57;99.90;94884.00;5072047;28;20191;-63
2022/05/01 06:57:26;;;;;;;14.20;9.60;;;;;;;13.67;97.65;94906.00;5072009;28;20288;-60
2022/05/01 06:59:51;;;;;;;10.60;8.45;;;;;;;13.65;92.03;94951.31;5071732;28;20252;-62
2022/05/01 07:02:17;;;;;;;10.45;9.02;;;;;;;13.73;95.49;94902.88;5071646;28;20228;-62
2022/05/01 07:04:43;;;;;;;11.33;8.73;;;;;;;13.84;95.81;94902.66;5071898;28;20541;-62
2022/05/01 07:07:08;;;;;;;10.40;8.60;;;;;;;13.93;94.41;94918.91;5071398;28;20217;-59
2022/05/01 07:09:34;;;;;;;10.03;7.93;;;;;;;14.00;89.59;94953.16;5071811;28;20617;-60
2022/05/01 07:11:59;;;;;;;8.63;7.73;;;;;;;14.19;90.58;94930.03;5071948;28;20684;-60
2022/05/01 07:14:25;;;;;;;10.67;6.67;;;;;;;14.25;92.36;94914.09;5074513;28;20639;-63
2022/05/01 07:16:50;;;;;;;8.90;6.93;;;;;;;14.44;91.37;94931.91;5075296;28;20625;-59
2022/05/01 07:19:16;;;;;;;8.37;7.20;;;;;;;14.46;86.67;94970.13;5075617;28;20181;-60
2022/05/01 07:21:41;;;;;;;7.90;7.18;;;;;;;14.50;85.35;94969.69;5057276;28;20663;-61
2022/05/01 07:24:07;;;;;;;8.35;7.40;;;;;;;14.54;87.04;94939.50;5075265;28;20638;-61
2022/05/01 07:26:35;;;;;;;10.90;6.87;;;;;;;14.70;88.20;94927.66;5057202;28;20266;-59
2022/05/01 07:29:05;;;;;;;8.45;6.32;;;;;;;14.81;83.07;94983.72;5075153;28;20187;-59
2022/05/01 07:31:30;;;;;;;6.87;5.87;;;;;;;14.70;81.02;94994.19;5075089;28;20235;-59
2022/05/01 07:33:57;;;;;;;7.47;5.20;;;;;;;14.74;78.83;95012.63;5075647;28;20193;-61
2022/05/01 07:36:23;;;;;;;7.00;6.00;;;;;;;14.87;81.76;94965.22;5057027;28;20268;-63
2022/05/01 07:38:49;;;;;;;7.07;6.13;;;;;;;15.07;80.77;94979.44;5057184;28;20192;-59
2022/05/01 07:41:18;;;;;;;10.25;5.63;;;;;;;15.20;82.14;94950.09;5074935;28;20226;-62
2022/05/01 07:43:45;;;;;;;6.55;5.82;;;;;;;15.13;80.64;94975.47;5057169;28;20635;-61
2022/05/01 07:46:10;;;;;;;9.43;6.88;;;;;;;15.25;80.31;94974.28;5074783;28;20177;-60
2022/05/01 07:48:37;;;;;;;5.82;5.22;;;;;;;15.38;75.78;95049.00;5057306;28;20185;-59
2022/05/01 07:51:03;;;;;;;5.90;5.35;;;;;;;15.30;75.19;95037.88;5075086;28;20197;-66
2022/05/01 07:53:28;;;;;;;5.90;5.30;;;;;;;15.12;73.39;95060.97;5056829;28;20251;-60
2022/05/01 07:55:54;;;;;;;5.45;4.93;;;;;;;15.02;74.62;95020.06;5075130;28;20197;-62
2022/05/01 07:58:20;;;;;;;6.22;5.07;;;;;;;14.98;73.78;95023.06;5075133;28;20237;-61
2022/05/01 08:00:47;;;;;;;5.40;4.85;;;;;;;15.17;73.50;95027.22;5074710;28;20283;-60
2022/05/01 08:05:58;;;;;;;8.00;4.57;;;;;;;15.32;70.15;95089.78;5074998;28;20239;-60
2022/05/01 08:08:23;;;;;;;7.50;5.15;;;;;;;15.40;72.47;95021.47;5074823;28;20217;-60
2022/05/01 08:10:49;;;;;;;8.20;5.13;;;;;;;15.44;73.58;95002.31;5074546;28;20191;-63
2022/05/01 08:13:15;;;;;;;6.22;4.85;;;;;;;15.50;69.64;95068.34;5056893;28;20299;-62
2022/05/01 08:15:40;;;;;;;5.53;5.03;;;;;;;15.55;71.39;95014.06;5074345;28;20189;-60
2022/05/01 08:21:07;;;;;;;5.60;4.53;;;;;;;15.89;68.99;95043.91;5074230;28;20280;-60
2022/05/01 08:23:34;;;;;;;6.20;4.40;;;;;;;16.06;67.51;95067.88;5074003;28;20673;-62
2022/05/01 08:26:03;;;;;;;4.35;3.67;;;;;;;16.25;65.04;95113.03;5074020;28;20200;-60
2022/05/01 08:28:32;;;;;;;5.75;4.43;;;;;;;16.47;67.26;95045.75;5074304;28;20224;-62
2022/05/01 08:30:58;;;;;;;4.13;3.30;;;;;;;16.61;63.93;95119.63;5055930;28;20547;-61
2022/05/01 08:33:23;;;;;;;4.43;3.22;;;;;;;16.72;63.84;95106.53;5056246;28;20652;-61
2022/05/01 08:35:49;;;;;;;3.75;3.30;;;;;;;16.67;61.29;95106.97;5074062;28;20238;-61
2022/05/01 08:38:15;;;;;;;3.85;3.28;;;;;;;16.66;59.47;95141.31;5074043;28;20204;-63
2022/05/01 08:40:42;;;;;;;3.45;3.00;;;;;;;16.80;63.43;95037.22;5073806;28;20180;-62
2022/05/01 08:43:08;;;;;;;5.72;3.45;;;;;;;16.75;60.22;95108.75;5073662;28;20200;-61
2022/05/01 08:45:48;;;;;;;5.88;3.45;;;;;;;16.95;62.82;95045.09;5073776;28;20181;-61
2022/05/01 08:48:18;;;;;;;3.75;2.70;;;;;;;17.10;57.93;95152.22;5073943;28;20212;-62
2022/05/01 08:50:45;;;;;;;6.22;2.60;;;;;;;17.04;54.37;95191.38;5073628;28;20525;-61
2022/05/01 08:53:13;;;;;;;4.03;3.03;;;;;;;17.12;58.47;95072.41;5073854;28;20228;-60
2022/05/01 08:55:40;;;;;;;3.22;2.92;;;;;;;17.20;56.63;95116.91;5073345;28;20196;-61
2022/05/01 08:58:07;;;;;;;3.55;2.60;;;;;;;17.33;54.69;95162.72;5073569;28;20291;-61
2022/05/01 09:00:32;;;;;;;4.57;3.35;;;;;;;17.35;58.32;95052.84;5055589;28;20181;-60
2022/05/01 09:02:58;;;;;;;3.50;2.50;;;;;;;17.35;57.76;95074.16;5072315;28;20573;-60
2022/05/01 09:05:24;;;;;;;3.50;2.40;;;;;;;17.39;53.52;95188.56;5072114;28;20169;-63
2022/05/01 09:07:49;;;;;;;4.03;2.50;;;;;;;17.57;51.84;95212.41;5053156;28;20682;-61
2022/05/01 09:10:16;;;;;;;3.20;2.80;;;;;;;17.70;54.85;95108.25;5073070;28;20177;-61
2022/05/01 09:12:52;;;;;;;4.18;3.05;;;;;;;17.84;55.35;95087.84;5073135;28;20759;-61
2022/05/01 09:15:31;;;;;;;5.70;3.03;;;;;;;17.97;55.61;95054.69;5073349;28;20161;-61
2022/05/01 09:18:05;;;;;;;3.45;2.50;;;;;;;17.83;53.84;95116.31;5073422;28;20200;-63
2022/05/01 09:20:31;;;;;;;2.97;2.45;;;;;;;17.82;53.46;95104.38;5072935;28;20177;-63
2022/05/01 09:22:58;;;;;;;2.38;2.17;;;;;;;17.77;48.43;95227.53;5073203;28;20200;-63
2022/05/01 09:25:28;;;;;;;2.65;2.42;;;;;;;17.95;48.98;95190.41;5054900;28;20252;-60
2022/05/01 09:28:02;;;;;;;4.10;2.50;;;;;;;18.20;48.83;95192.00;5072343;28;20299;-61
2022/05/01 09:30:40;;;;;;;2.08;1.70;;;;;;;18.42;49.31;95172.50;5071911;28;20624;-64
2022/05/01 09:33:19;;;;;;;4.85;2.17;;;;;;;18.51;47.34;95196.47;5072450;28;20231;-59
2022/05/01 09:35:44;;;;;;;2.40;2.08;;;;;;;18.44;43.93;95268.44;5072641;28;20169;-61
2022/05/01 09:38:17;;;;;;;1.58;1.48;;;;;;;18.65;45.70;95201.75;5073018;28;20283;-60
2022/05/01 09:40:48;;;;;;;2.20;2.00;;;;;;;19.06;48.53;95119.94;5072944;28;20177;-59
2022/05/01 09:43:35;;;;;;;3.38;2.15;;;;;;;19.05;45.87;95180.19;5073357;28;20230;-59
2022/05/01 09:46:23;;;;;;;2.40;1.50;;;;;;;18.92;40.79;95313.94;5072787;28;20710;-60
2022/05/01 09:48:58;;;;;;;3.08;1.58;;;;;;;18.68;45.89;95131.91;5072591;28;20253;-63
2022/05/01 09:51:25;;;;;;;1.60;1.50;;;;;;;18.76;44.85;95174.84;5071106;28;20175;-63
2022/05/01 09:53:50;;;;;;;1.98;1.58;;;;;;;18.92;47.18;95082.00;5072716;28;20554;-63
2022/05/01 09:56:15;;;;;;;3.78;1.83;;;;;;;19.14;51.43;94970.38;5072273;28;20180;-60
2022/05/01 09:58:43;;;;;;;2.00;1.67;;;;;;;19.09;44.53;95166.78;5072980;28;20188;-64
2022/05/01 10:01:11;;;;;;;2.63;1.77;;;;;;;18.88;44.41;95147.75;5054398;28;20188;-62
2022/05/01 10:03:41;;;;;;;1.83;1.73;;;;;;;18.99;45.54;95119.00;5072897;28;20196;-61
2022/05/01 10:06:10;;;;;;;2.38;2.17;;;;;;;19.21;46.57;95087.28;5072439;28;20169;-62
2022/05/01 10:08:38;;;;;;;2.30;1.50;;;;;;;19.54;43.31;95178.97;5072497;28;20224;-61
2022/05/01 10:11:05;;;;;;;4.20;1.90;;;;;;;19.90;46.22;95081.91;5054141;28;20256;-59
2022/05/01 10:13:31;;;;;;;5.75;3.85;;;;;;;20.22;42.13;95219.47;5054280;28;20739;-60
2022/05/01 10:15:59;;;;;;;2.58;2.38;;;;;;;20.18;41.43;95211.22;5072281;28;20181;-60
2022/05/01 10:18:25;;;;;;;2.67;1.90;;;;;;;20.40;41.79;95187.16;5071902;28;20349;-60
2022/05/01 10:20:51;;;;;;;2.10;1.40;;;;;;;20.34;39.95;95247.25;5072037;28;20173;-59
2022/05/01 10:23:17;;;;;;;1.38;1.27;;;;;;;20.42;39.95;95233.50;5072269;28;20291;-60
2022/05/01 10:25:53;;;;;;;2.25;1.88;;;;;;;20.23;42.33;95135.84;5072038;28;20208;-60
2022/05/01 10:28:30;;;;;;;2.35;1.80;;;;;;;20.50;45.63;95045.59;5072351;28;20223;-60
2022/05/01 10:34:40;;;;;;;2.42;2.22;;;;;;;20.75;40.81;95177.91;5043050;28;20226;-61
2022/05/01 10:37:24;;;;;;;1.90;1.70;;;;;;;20.99;40.89;95159.53;5053864;28;20207;-60
2022/05/01 10:39:50;;;;;;;2.63;1.90;;;;;;;21.45;39.68;95196.31;5072064;28;20849;-60
2022/05/01 10:42:38;;;;;;;2.33;2.13;;;;;;;20.88;40.30;95152.25;5071999;28;20207;-64
2022/05/01 10:45:24;;;;;;;3.65;2.63;;;;;;;20.65;40.31;95141.19;5053842;28;20185;-60
2022/05/01 10:47:52;;;;;;;2.08;1.98;;;;;;;20.31;41.64;95097.03;5072244;28;20299;-63
2022/05/01 10:50:22;;;;;;;2.60;1.85;;;;;;;20.03;41.78;95086.47;5075961;28;20548;-61
2022/05/01 10:53:04;;;;;;;2.65;1.73;;;;;;;20.46;41.32;95095.25;5076140;28;20358;-60
2022/05/01 10:55:44;;;;;;;2.13;2.00;;;;;;;20.50;40.15;95132.66;5076077;28;20527;-61
2022/05/01 10:58:22;;;;;;;2.78;1.70;;;;;;;21.13;40.07;95130.28;5076212;28;20196;-63
2022/05/01 11:00:49;;;;;;;1.55;1.45;;;;;;;21.48;43.47;94999.28;5075854;28;20262;-60
2022/05/01 11:03:50;;;;;;;2.20;1.65;;;;;;;21.72;41.46;95059.19;5075994;28;20197;-60
2022/05/01 11:06:20;;;;;;;2.10;1.77;;;;;;;21.36;38.09;95128.34;5075842;28;20192;-61
2022/05/01 11:08:46;;;;;;;2.58;1.55;;;;;;;21.83;38.96;95088.97;5057668;28;20242;-64
2022/05/01 11:11:13;;;;;;;1.98;1.60;;;;;;;22.25;39.91;95023.28;5075516;28;20173;-62
2022/05/01 11:13:41;;;;;;;4.20;2.10;;;;;;;21.67;38.07;95040.81;5076042;28;20188;-60
2022/05/01 11:16:08;;;;;;;4.75;1.90;;;;;;;22.09;37.66;95052.09;5075435;28;20188;-60
2022/05/01 11:18:35;;;;;;;1.63;1.50;;;;;;;22.46;37.54;95042.13;5057815;28;20233;-61
2022/05/01 11:21:34;;;;;;;2.50;1.83;;;;;;;21.82;37.09;95056.28;5075325;28;20181;-60
2022/05/01 11:24:01;;;;;;;2.78;1.67;;;;;;;21.48;40.12;94958.69;5075136;28;20193;-63
2022/05/01 11:26:28;;;;;;;2.47;1.90;;;;;;;21.14;39.74;94960.41;5075294;28;20184;-61
2022/05/01 11:29:11;;;;;;;2.40;2.20;;;;;;;21.24;38.98;94991.91;5075849;28;20177;-63
2022/05/01 11:31:36;;;;;;;4.72;1.58;;;;;;;21.33;39.31;94968.31;5075126;28;20209;-60
2022/05/01 11:34:17;;;;;;;3.40;2.10;;;;;;;20.83;40.64;94937.44;5074870;28;20276;-60
2022/05/01 11:36:58;;;;;;;2.17;2.00;;;;;;;20.67;39.49;94964.34;5075027;28;20228;-62
2022/05/01 11:39:45;;;;;;;3.25;2.17;;;;;;;20.39;40.00;94940.19;5075062;28;20244;-61
2022/05/01 11:42:25;;;;;;;2.08;1.98;;;;;;;20.01;41.39;94898.22;5074873;28;20214;-60
2022/05/01 11:44:54;;;;;;;2.10;1.90;;;;;;;19.60;43.09;94850.69;5074906;28;20195;-60
2022/05/01 11:47:20;;;;;;;4.38;2.17;;;;;;;19.32;43.45;94843.72;5074684;28;20717;-60
2022/05/01 11:49:46;;;;;;;2.55;2.28;;;;;;;19.29;44.58;94816.50;5074945;28;20209;-61
2022/05/01 11:52:16;;;;;;;2.97;2.63;;;;;;;19.41;43.38;94851.25;5056704;28;20250;-61
2022/05/01 11:54:50;;;;;;;3.35;2.42;;;;;;;19.48;45.53;94805.69;5056659;28;20173;-60